NCAR-RAP Real-Time Weather Data

Output produced by METARs form (26 May 2022  08:32 UTC)
found at http://weather.rap.ucar.edu/surface/
 
VVTS 260730Z 33007KT 300V020 9999 BKN017 FEW020TCU 33/25 Q1004 NOSIG RMK TCU/SE/W
VVTS 260700Z 30008KT 270V010 9999 BKN017 32/26 Q1005 NOSIG
VVTS 260630Z 32008KT 290V020 9999 BKN017 33/26 Q1005 NOSIG
VVTS 260600Z 32008KT 280V350 9999 BKN017 33/24 Q1006 NOSIG
VVTS 260530Z 31007KT 280V360 9999 BKN017 34/25 Q1006 NOSIG
VVTS 260500Z 32007G18KT 260V360 9999 BKN017 32/25 Q1007 NOSIG
VVTS 260430Z 31006KT 260V020 9999 SCT017 SCT050 33/25 Q1007 NOSIG
VVTS 260400Z 30008KT 260V340 9999 SCT017 SCT050 33/25 Q1008 NOSIG
VVTS 260330Z 32007KT 270V350 9999 SCT017 SCT050 32/26 Q1008 NOSIG
VVTS 260300Z 30007KT 260V320 9999 FEW017 BKN050 31/25 Q1009 NOSIG
VVTS 260230Z 30008KT 270V330 9999 FEW017 BKN050 30/26 Q1009 NOSIG
VVTS 260200Z 30004KT 260V340 9999 FEW017 BKN050 30/25 Q1009 NOSIG
VVTS 260130Z 29006KT 9999 FEW017 BKN050 30/25 Q1009 NOSIG
VVTS 260100Z 29006KT 260V340 9999 FEW017 BKN050 29/25 Q1008 NOSIG
VVTS 260030Z 28006KT 9999 FEW017 BKN050 27/25 Q1008 NOSIG
VVTS 260000Z 28006KT 250V310 9999 -RA FEW017 BKN050 27/25 Q1008 NOSIG
VVTS 252330Z 27007KT 9999 FEW017 BKN050 26/25 Q1007 NOSIG
VVTS 252300Z 29007KT 250V320 8000 SCT015 FEW017TCU BKN050 26/24 Q1007 NOSIG RMK TCU/NW
VVTS 252230Z 29010KT 8000 SCT015 FEW017TCU BKN050 27/25 Q1007 NOSIG RMK TCU/W
VVTS 252200Z 26007KT 9999 SCT015 SCT050 27/26 Q1007 NOSIG
VVTS 252130Z 27006KT 9999 SCT015 SCT050 27/26 Q1007 NOSIG
VVTS 252100Z 26006KT 9999 SCT015 SCT050 27/26 Q1007 NOSIG